Time;durP1;ratioP1;P1;durP2;ratioP2;P2;SDS_P1;SDS_P2;PMS_P1;PMS_P2;Temp;Humidity;BMP_temperature;BMP_pressure;BME280_temperature;BME280_humidity;BME280_pressure;Samples;Min_cycle;Max_cycle;Signal;HPM_P1;HPM_P2
2021/12/13 00:01:50;;;;;;;;;;;3.10;99.90;;;;;;5057276;28;19909;-76
2021/12/13 00:04:36;;;;;;;;;;;3.10;99.90;;;;;;5059684;28;19909;-76
2021/12/13 00:07:05;;;;;;;;;;;3.20;99.90;;;;;;5064780;28;20295;-76
2021/12/13 00:09:33;;;;;;;;;;;3.20;99.90;;;;;;5080853;28;19909;-76
2021/12/13 00:12:00;;;;;;;;;;;3.20;99.90;;;;;;5080528;28;19915;-75
2021/12/13 00:14:45;;;;;;;;;;;3.30;99.90;;;;;;5080769;28;19974;-76
2021/12/13 00:17:13;;;;;;;;;;;3.30;99.90;;;;;;5079334;28;19994;-75
2021/12/13 00:19:40;;;;;;;;;;;3.30;99.90;;;;;;5078499;28;19921;-76
2021/12/13 00:22:29;;;;;;;;;;;3.30;99.90;;;;;;5060775;28;19912;-76
2021/12/13 00:25:00;;;;;;;;;;;3.20;99.90;;;;;;5060250;28;20373;-76
2021/12/13 00:27:27;;;;;;;;;;;3.20;99.90;;;;;;5058874;28;19909;-76
2021/12/13 00:29:58;;;;;;;;;;;3.20;99.90;;;;;;5058985;28;20380;-76
2021/12/13 00:32:43;;;;;;;;;;;3.10;99.90;;;;;;5060867;28;19996;-76
2021/12/13 00:35:11;;;;;;;;;;;3.10;99.90;;;;;;5068391;28;19915;-76
2021/12/13 00:37:42;;;;;;;;;;;3.10;99.90;;;;;;5080197;28;20400;-76
2021/12/13 00:40:17;;;;;;;;;;;3.10;99.90;;;;;;5080358;28;19912;-76
2021/12/13 00:42:45;;;;;;;;;;;3.00;99.90;;;;;;5079501;28;19909;-76
2021/12/13 00:45:12;;;;;;;;;;;3.00;99.90;;;;;;5080259;28;19916;-76
2021/12/13 00:47:39;;;;;;;;;;;3.00;99.90;;;;;;5079968;28;19912;-76
2021/12/13 00:50:20;;;;;;;;;;;3.00;99.90;;;;;;5080471;28;19908;-76
2021/12/13 00:52:47;;;;;;;;;;;2.90;99.90;;;;;;5080163;28;19909;-76
2021/12/13 00:55:14;;;;;;;;;;;2.90;99.90;;;;;;5078592;28;19909;-76
2021/12/13 00:57:45;;;;;;;;;;;2.80;99.90;;;;;;5079840;28;19909;-76
2021/12/13 01:00:10;;;;;;;;;;;2.80;99.90;;;;;;5079326;28;19967;-76
2021/12/13 01:02:45;;;;;;;;;;;2.80;99.90;;;;;;5059934;28;20402;-76
2021/12/13 01:05:25;;;;;;;;;;;2.70;99.90;;;;;;5058423;28;19952;-76
2021/12/13 01:08:02;;;;;;;;;;;2.80;99.90;;;;;;5059590;28;19915;-76
2021/12/13 01:10:43;;;;;;;;;;;2.70;99.90;;;;;;5059441;28;20293;-76
2021/12/13 01:13:09;;;;;;;;;;;2.70;99.90;;;;;;5073034;28;19951;-76
2021/12/13 01:15:43;;;;;;;;;;;2.70;99.90;;;;;;5079908;28;19908;-76
2021/12/13 01:18:17;;;;;;;;;;;2.70;99.90;;;;;;5077935;28;20311;-76
2021/12/13 01:21:12;;;;;;;;;;;2.70;99.90;;;;;;5067473;28;19913;-76
2021/12/13 01:23:45;;;;;;;;;;;2.60;99.90;;;;;;5059521;28;19912;-76
2021/12/13 01:26:28;;;;;;;;;;;2.60;99.90;;;;;;5059431;28;20268;-76
2021/12/13 01:28:57;;;;;;;;;;;2.60;99.90;;;;;;5059396;28;19909;-76
2021/12/13 01:31:31;;;;;;;;;;;2.60;99.90;;;;;;5059175;28;19908;-76
2021/12/13 01:33:58;;;;;;;;;;;2.50;99.90;;;;;;5059278;28;19909;-76
2021/12/13 01:36:27;;;;;;;;;;;2.50;99.90;;;;;;5057835;28;20438;-76
2021/12/13 01:39:01;;;;;;;;;;;2.40;99.90;;;;;;5059157;28;20015;-76
2021/12/13 01:41:32;;;;;;;;;;;2.40;99.90;;;;;;5064283;28;19980;-76
2021/12/13 01:44:06;;;;;;;;;;;2.40;99.90;;;;;;5063980;28;19980;-76
2021/12/13 01:46:36;;;;;;;;;;;2.40;99.90;;;;;;5059199;28;19916;-76
2021/12/13 01:49:04;;;;;;;;;;;2.40;99.90;;;;;;5059161;28;20007;-76
2021/12/13 01:51:33;;;;;;;;;;;2.30;99.90;;;;;;5059032;28;20283;-76
2021/12/13 01:54:03;;;;;;;;;;;2.30;99.90;;;;;;5057381;28;19908;-76
2021/12/13 01:56:43;;;;;;;;;;;2.30;99.90;;;;;;5058535;28;19909;-76
2021/12/13 01:59:52;;;;;;;;;;;2.40;99.90;;;;;;5058793;28;19919;-76
2021/12/13 02:02:22;;;;;;;;;;;2.40;99.90;;;;;;5058302;28;19955;-76
2021/12/13 02:04:59;;;;;;;;;;;2.30;99.90;;;;;;5058761;28;19909;-76
2021/12/13 02:07:29;;;;;;;;;;;2.40;99.90;;;;;;5066628;28;20393;-76
2021/12/13 02:09:55;;;;;;;;;;;2.40;99.90;;;;;;5077343;28;20418;-76
2021/12/13 02:12:21;;;;;;;;;;;2.40;99.90;;;;;;5078234;28;20002;-76
2021/12/13 02:16:55;;;;;;;;;;;2.40;99.90;;;;;;5078299;28;19919;-76
2021/12/13 02:17:35;;;;;;;;;;;2.40;99.90;;;;;;5078379;28;20029;-76
2021/12/13 02:20:04;;;;;;;;;;;2.40;99.90;;;;;;5073074;28;19967;-76
2021/12/13 02:22:32;;;;;;;;;;;2.50;99.90;;;;;;5058161;28;19923;-76
2021/12/13 02:25:06;;;;;;;;;;;2.40;99.90;;;;;;5056183;28;20003;-76
2021/12/13 02:27:33;;;;;;;;;;;2.40;99.90;;;;;;5057936;28;19962;-76
2021/12/13 02:30:00;;;;;;;;;;;2.40;99.90;;;;;;5056734;28;20299;-76
2021/12/13 02:32:28;;;;;;;;;;;2.40;99.90;;;;;;5056738;28;19909;-76
2021/12/13 02:34:56;;;;;;;;;;;2.40;99.90;;;;;;5058224;28;20357;-76
2021/12/13 02:37:23;;;;;;;;;;;2.40;99.90;;;;;;5058072;28;20007;-76
2021/12/13 02:39:49;;;;;;;;;;;2.40;99.90;;;;;;5056941;28;20002;-77
2021/12/13 02:42:16;;;;;;;;;;;2.40;99.90;;;;;;5056293;28;19943;-76
2021/12/13 02:44:44;;;;;;;;;;;2.40;99.90;;;;;;5058007;28;20388;-76
2021/12/13 02:47:30;;;;;;;;;;;2.40;99.90;;;;;;5057942;28;19909;-76
2021/12/13 02:49:56;;;;;;;;;;;2.40;99.90;;;;;;5056408;28;19955;-77
2021/12/13 02:52:23;;;;;;;;;;;2.40;99.90;;;;;;5057716;28;19909;-76
2021/12/13 02:54:54;;;;;;;;;;;2.40;99.90;;;;;;5057830;28;19912;-76
2021/12/13 02:57:21;;;;;;;;;;;2.40;99.90;;;;;;5066071;28;19949;-76
2021/12/13 02:59:52;;;;;;;;;;;2.40;99.90;;;;;;5076386;28;19912;-77
2021/12/13 03:02:20;;;;;;;;;;;2.30;99.90;;;;;;5076312;28;19999;-76
2021/12/13 03:04:47;;;;;;;;;;;2.30;99.90;;;;;;5076320;28;20284;-76
2021/12/13 03:07:18;;;;;;;;;;;2.40;99.90;;;;;;5077582;28;19908;-76
2021/12/13 03:09:44;;;;;;;;;;;2.40;99.90;;;;;;5076496;28;19995;-76
2021/12/13 03:12:11;;;;;;;;;;;2.40;99.90;;;;;;5077251;28;19908;-76
2021/12/13 03:14:40;;;;;;;;;;;2.40;99.90;;;;;;5077582;28;19931;-76
2021/12/13 03:17:06;;;;;;;;;;;2.40;99.90;;;;;;5077616;28;19916;-76
2021/12/13 03:19:43;;;;;;;;;;;2.40;99.90;;;;;;5075309;28;19920;-76
2021/12/13 03:22:20;;;;;;;;;;;2.40;99.90;;;;;;5056147;28;20284;-76
2021/12/13 03:24:50;;;;;;;;;;;2.40;99.90;;;;;;5057242;28;19909;-76
2021/12/13 03:27:27;;;;;;;;;;;2.40;99.90;;;;;;5057176;28;19995;-76
2021/12/13 03:29:58;;;;;;;;;;;2.40;99.90;;;;;;5057110;28;19909;-76
2021/12/13 03:32:30;;;;;;;;;;;2.30;99.90;;;;;;5056107;28;19909;-76
2021/12/13 03:35:04;;;;;;;;;;;2.30;99.90;;;;;;5057774;28;19909;-76
2021/12/13 03:37:31;;;;;;;;;;;2.30;99.90;;;;;;5061299;28;19920;-76
2021/12/13 03:39:59;;;;;;;;;;;2.30;99.90;;;;;;5061455;28;20373;-76
2021/12/13 03:42:34;;;;;;;;;;;2.30;99.90;;;;;;5059687;28;19909;-76
2021/12/13 03:45:04;;;;;;;;;;;2.30;99.90;;;;;;5068434;28;19915;-76
2021/12/13 03:47:37;;;;;;;;;;;2.20;99.90;;;;;;5063555;28;19909;-76
2021/12/13 03:50:10;;;;;;;;;;;2.20;99.90;;;;;;5061209;28;20292;-76
2021/12/13 03:52:39;;;;;;;;;;;2.10;99.90;;;;;;5079553;28;19915;-76
2021/12/13 03:55:05;;;;;;;;;;;2.00;99.90;;;;;;5067905;28;19920;-76
2021/12/13 03:57:31;;;;;;;;;;;1.90;99.90;;;;;;5059477;28;19990;-76
2021/12/13 03:59:58;;;;;;;;;;;1.90;99.90;;;;;;5060983;28;19912;-76
2021/12/13 04:02:26;;;;;;;;;;;1.80;99.90;;;;;;5059722;28;19913;-76
2021/12/13 04:04:57;;;;;;;;;;;1.80;99.90;;;;;;5059515;28;19913;-76
2021/12/13 04:07:31;;;;;;;;;;;1.70;99.90;;;;;;5061025;28;19908;-76
2021/12/13 04:09:59;;;;;;;;;;;1.70;99.90;;;;;;5060852;28;19908;-76
2021/12/13 04:12:30;;;;;;;;;;;1.60;99.90;;;;;;5069482;28;19909;-76
2021/12/13 04:15:01;;;;;;;;;;;1.60;99.90;;;;;;5080685;28;20273;-76
2021/12/13 04:17:42;;;;;;;;;;;1.60;99.90;;;;;;5080918;28;19909;-76
2021/12/13 04:20:14;;;;;;;;;;;1.60;99.90;;;;;;5074526;28;19921;-76
2021/12/13 04:22:45;;;;;;;;;;;1.60;99.90;;;;;;5059312;28;19913;-76
2021/12/13 04:25:13;;;;;;;;;;;1.70;99.90;;;;;;5060781;28;19909;-76
2021/12/13 04:27:44;;;;;;;;;;;1.70;99.90;;;;;;5060034;28;19908;-76
2021/12/13 04:30:20;;;;;;;;;;;1.70;99.90;;;;;;5059209;28;19909;-76
2021/12/13 04:32:48;;;;;;;;;;;1.80;99.90;;;;;;5060330;28;19909;-76
2021/12/13 04:35:15;;;;;;;;;;;1.70;99.90;;;;;;5060699;28;19948;-76
2021/12/13 04:37:42;;;;;;;;;;;1.80;99.90;;;;;;5060285;28;19928;-76
2021/12/13 04:40:13;;;;;;;;;;;1.80;99.90;;;;;;5060216;28;19913;-76
2021/12/13 04:42:40;;;;;;;;;;;1.80;99.90;;;;;;5058404;28;19913;-76
2021/12/13 04:45:08;;;;;;;;;;;1.70;99.90;;;;;;5058958;28;19970;-76
2021/12/13 04:47:40;;;;;;;;;;;1.80;99.90;;;;;;5059003;28;19909;-76
2021/12/13 04:50:05;;;;;;;;;;;1.90;99.90;;;;;;5058906;28;19952;-76
2021/12/13 04:52:32;;;;;;;;;;;1.90;99.90;;;;;;5078583;28;19909;-76
2021/12/13 04:54:58;;;;;;;;;;;1.90;99.90;;;;;;5080038;28;19908;-76
2021/12/13 04:57:24;;;;;;;;;;;1.90;99.90;;;;;;5079605;28;19916;-76
2021/12/13 05:00:05;;;;;;;;;;;2.00;99.90;;;;;;5079889;28;19916;-76
2021/12/13 05:02:31;;;;;;;;;;;2.00;99.90;;;;;;5078638;28;19968;-76
2021/12/13 05:04:58;;;;;;;;;;;2.00;99.90;;;;;;5079822;28;20380;-76
2021/12/13 05:07:24;;;;;;;;;;;2.00;99.90;;;;;;5079900;28;19908;-76
2021/12/13 05:09:51;;;;;;;;;;;2.00;99.90;;;;;;5079558;28;19917;-76
2021/12/13 05:12:19;;;;;;;;;;;2.00;99.90;;;;;;5078196;28;19930;-76
2021/12/13 05:14:48;;;;;;;;;;;2.00;99.90;;;;;;5079627;28;19909;-76
2021/12/13 05:17:15;;;;;;;;;;;2.00;99.90;;;;;;5079497;28;19915;-76
2021/12/13 05:19:45;;;;;;;;;;;2.00;99.90;;;;;;5079206;28;19927;-76
2021/12/13 05:22:14;;;;;;;;;;;2.00;99.90;;;;;;5088484;28;20300;-76
2021/12/13 05:25:06;;;;;;;;;;;2.00;99.90;;;;;;5088320;28;19912;-76
2021/12/13 05:27:37;;;;;;;;;;;1.90;99.90;;;;;;5082866;28;19927;-76
2021/12/13 05:30:05;;;;;;;;;;;1.90;99.90;;;;;;5079542;28;19919;-76
2021/12/13 05:32:33;;;;;;;;;;;1.90;99.90;;;;;;5076805;28;19947;-76
2021/12/13 05:35:02;;;;;;;;;;;1.90;99.90;;;;;;5071072;28;19920;-76
2021/12/13 05:37:38;;;;;;;;;;;1.90;99.90;;;;;;5079961;28;19959;-76
2021/12/13 05:40:07;;;;;;;;;;;1.90;99.90;;;;;;5087417;28;19940;-76
2021/12/13 05:42:35;;;;;;;;;;;1.90;99.90;;;;;;5087593;28;19916;-76
2021/12/13 05:45:01;;;;;;;;;;;1.80;99.90;;;;;;5084786;28;19927;-76
2021/12/13 05:47:27;;;;;;;;;;;1.80;99.90;;;;;;5082970;28;19908;-78
2021/12/13 05:49:53;;;;;;;;;;;1.80;99.90;;;;;;5092259;28;20010;-76
2021/12/13 05:52:30;;;;;;;;;;;1.80;99.90;;;;;;5081732;28;19931;-76
2021/12/13 05:54:58;;;;;;;;;;;1.80;99.90;;;;;;5086222;28;20001;-76
2021/12/13 05:57:25;;;;;;;;;;;1.80;99.90;;;;;;5085659;28;19909;-75
2021/12/13 05:59:51;;;;;;;;;;;1.80;99.90;;;;;;5077245;28;19995;-76
2021/12/13 06:02:34;;;;;;;;;;;1.80;99.90;;;;;;5077276;28;19913;-76
2021/12/13 06:05:02;;;;;;;;;;;1.80;99.90;;;;;;5078473;28;19986;-76
2021/12/13 06:07:29;;;;;;;;;;;1.80;99.90;;;;;;5076216;28;19919;-76
2021/12/13 06:10:00;;;;;;;;;;;1.80;99.90;;;;;;5062889;28;19909;-76
2021/12/13 06:12:34;;;;;;;;;;;1.80;99.90;;;;;;5065864;28;19909;-76
2021/12/13 06:15:15;;;;;;;;;;;1.80;99.90;;;;;;5078208;28;19909;-75
2021/12/13 06:17:43;;;;;;;;;;;1.80;99.90;;;;;;5078526;28;19912;-76
2021/12/13 06:20:11;;;;;;;;;;;1.70;99.90;;;;;;5070864;28;19928;-76
2021/12/13 06:22:37;;;;;;;;;;;1.80;99.90;;;;;;5058491;28;19909;-76
2021/12/13 06:25:08;;;;;;;;;;;1.70;99.90;;;;;;5056743;28;19915;-76
2021/12/13 06:28:00;;;;;;;;;;;1.60;99.90;;;;;;5056601;28;19913;-76
2021/12/13 06:30:32;;;;;;;;;;;1.60;99.90;;;;;;5066646;28;19995;-76
2021/12/13 06:32:59;;;;;;;;;;;1.50;99.90;;;;;;5078000;28;19951;-76
2021/12/13 06:35:28;;;;;;;;;;;1.50;99.90;;;;;;5077106;28;19908;-78
2021/12/13 06:37:53;;;;;;;;;;;1.30;99.90;;;;;;5076126;28;19960;-78
2021/12/13 06:40:27;;;;;;;;;;;0.80;99.90;;;;;;5077997;28;20392;-78
2021/12/13 06:42:57;;;;;;;;;;;0.50;99.90;;;;;;5077621;28;19932;-78
2021/12/13 06:45:26;;;;;;;;;;;0.40;99.90;;;;;;5075959;28;19995;-77
2021/12/13 06:47:53;;;;;;;;;;;0.30;99.90;;;;;;5058004;28;19913;-78
2021/12/13 06:50:27;;;;;;;;;;;0.20;99.90;;;;;;5057715;28;19945;-78
2021/12/13 06:53:08;;;;;;;;;;;0.20;99.90;;;;;;5057917;28;19913;-78
2021/12/13 06:55:33;;;;;;;;;;;0.10;99.90;;;;;;5057879;28;19955;-77
2021/12/13 06:58:00;;;;;;;;;;;0.10;99.90;;;;;;5057531;28;19909;-78
2021/12/13 07:00:32;;;;;;;;;;;0.10;99.90;;;;;;5060626;28;20007;-78
2021/12/13 07:03:02;;;;;;;;;;;0.20;99.90;;;;;;5086419;28;19919;-77
2021/12/13 07:05:48;;;;;;;;;;;0.30;99.90;;;;;;5072654;28;19909;-77
2021/12/13 07:08:25;;;;;;;;;;;0.30;99.90;;;;;;5086765;28;20295;-76
2021/12/13 07:10:55;;;;;;;;;;;0.40;99.90;;;;;;5077214;28;19908;-77
2021/12/13 07:13:43;;;;;;;;;;;0.40;99.90;;;;;;5074551;28;20368;-77
2021/12/13 07:16:11;;;;;;;;;;;0.60;99.90;;;;;;5083253;28;19920;-77
2021/12/13 07:18:39;;;;;;;;;;;0.80;99.90;;;;;;5087305;28;19936;-77
2021/12/13 07:21:15;;;;;;;;;;;0.90;99.90;;;;;;5087325;28;20198;-77
2021/12/13 07:24:05;;;;;;;;;;;1.00;99.90;;;;;;5078186;28;19917;-77
2021/12/13 07:26:41;;;;;;;;;;;0.70;99.90;;;;;;5078571;28;19913;-77
2021/12/13 07:29:12;;;;;;;;;;;0.60;99.90;;;;;;5061935;28;19923;-77
2021/12/13 07:31:40;;;;;;;;;;;0.80;99.90;;;;;;5057405;28;19915;-77
2021/12/13 07:34:08;;;;;;;;;;;0.90;99.90;;;;;;5064902;28;19999;-77
2021/12/13 07:36:34;;;;;;;;;;;1.00;99.90;;;;;;5057472;28;19909;-77
2021/12/13 07:39:06;;;;;;;;;;;1.20;99.90;;;;;;5055708;28;20423;-77
2021/12/13 07:41:41;;;;;;;;;;;1.30;99.90;;;;;;5056978;28;19916;-77
2021/12/13 07:44:07;;;;;;;;;;;1.40;99.90;;;;;;5069695;28;20371;-77
2021/12/13 07:46:33;;;;;;;;;;;1.50;99.90;;;;;;5068793;28;19931;-77
2021/12/13 07:49:04;;;;;;;;;;;1.60;99.90;;;;;;5076631;28;19908;-77
2021/12/13 07:51:30;;;;;;;;;;;1.70;99.90;;;;;;5076114;28;19948;-76
2021/12/13 07:53:58;;;;;;;;;;;1.70;99.90;;;;;;5077189;28;19912;-77
2021/12/13 07:56:36;;;;;;;;;;;1.80;99.90;;;;;;5075575;28;19963;-77
2021/12/13 07:59:10;;;;;;;;;;;1.80;99.90;;;;;;5075920;28;19916;-77
2021/12/13 08:01:42;;;;;;;;;;;1.90;99.90;;;;;;5082496;28;20353;-77
2021/12/13 08:04:12;;;;;;;;;;;1.90;99.90;;;;;;5068277;28;19908;-77
2021/12/13 08:06:41;;;;;;;;;;;1.90;99.90;;;;;;5056882;28;19909;-77
2021/12/13 08:09:10;;;;;;;;;;;2.00;99.90;;;;;;5057154;28;19931;-77
2021/12/13 08:11:42;;;;;;;;;;;2.00;99.90;;;;;;5058767;28;20288;-77
2021/12/13 08:14:07;;;;;;;;;;;2.10;99.90;;;;;;5077043;28;19916;-77
2021/12/13 08:16:35;;;;;;;;;;;2.10;99.90;;;;;;5060564;28;20360;-75
2021/12/13 08:19:10;;;;;;;;;;;2.10;99.90;;;;;;5061504;28;19967;-75
2021/12/13 08:21:38;;;;;;;;;;;2.10;99.90;;;;;;5059695;28;19963;-76
2021/12/13 08:24:04;;;;;;;;;;;2.10;99.90;;;;;;5091194;28;19913;-77
2021/12/13 08:26:29;;;;;;;;;;;2.10;99.90;;;;;;5084466;28;19915;-76
2021/12/13 08:28:56;;;;;;;;;;;2.20;99.90;;;;;;5088806;28;19908;-78
2021/12/13 08:31:24;;;;;;;;;;;2.20;99.90;;;;;;5090389;28;19908;-78
2021/12/13 08:33:55;;;;;;;;;;;2.30;99.90;;;;;;5080900;28;19912;-76
2021/12/13 08:36:24;;;;;;;;;;;2.30;99.90;;;;;;5093048;28;20368;-75
2021/12/13 08:39:07;;;;;;;;;;;2.30;99.90;;;;;;5090001;28;19951;-75
2021/12/13 08:41:36;;;;;;;;;;;2.40;99.90;;;;;;5090778;28;19923;-75
2021/12/13 08:44:04;;;;;;;;;;;2.40;99.90;;;;;;5088816;28;20667;-76
2021/12/13 08:46:30;;;;;;;;;;;2.40;99.90;;;;;;5086719;28;19923;-76
2021/12/13 08:48:56;;;;;;;;;;;2.50;99.90;;;;;;5080824;28;19909;-76
2021/12/13 08:51:23;;;;;;;;;;;2.50;99.90;;;;;;5089966;28;19962;-77
2021/12/13 08:53:58;;;;;;;;;;;2.50;99.90;;;;;;5091376;28;19922;-76
2021/12/13 08:56:23;;;;;;;;;;;2.60;99.90;;;;;;5085486;28;20431;-76
2021/12/13 08:59:01;;;;;;;;;;;2.60;99.90;;;;;;5081173;28;19935;-76
2021/12/13 09:01:36;;;;;;;;;;;2.60;99.90;;;;;;5085797;28;19908;-76
2021/12/13 09:04:02;;;;;;;;;;;2.70;99.90;;;;;;5084706;28;19976;-77
2021/12/13 09:06:30;;;;;;;;;;;2.70;99.90;;;;;;5085737;28;19908;-76
2021/12/13 09:09:03;;;;;;;;;;;2.70;99.90;;;;;;5090604;28;19947;-77
2021/12/13 09:11:34;;;;;;;;;;;2.70;99.90;;;;;;5086186;28;19973;-77
2021/12/13 09:14:10;;;;;;;;;;;2.80;99.90;;;;;;5090027;28;19963;-76
2021/12/13 09:16:45;;;;;;;;;;;2.90;99.90;;;;;;5091832;28;19916;-77
2021/12/13 09:19:19;;;;;;;;;;;3.00;99.90;;;;;;5080140;28;19985;-76
2021/12/13 09:22:10;;;;;;;;;;;3.10;99.90;;;;;;5089358;28;20380;-77
2021/12/13 09:24:47;;;;;;;;;;;3.20;99.90;;;;;;5069768;28;19909;-77
2021/12/13 09:27:18;;;;;;;;;;;3.20;99.90;;;;;;5087562;28;20299;-77
2021/12/13 09:30:07;;;;;;;;;;;3.30;99.90;;;;;;5079676;28;19909;-76
2021/12/13 09:32:35;;;;;;;;;;;3.40;99.90;;;;;;5055358;28;19913;-77
2021/12/13 09:35:21;;;;;;;;;;;3.50;99.90;;;;;;5064296;28;19909;-78
2021/12/13 09:37:48;;;;;;;;;;;3.60;99.90;;;;;;5057972;28;19909;-77
2021/12/13 09:40:14;;;;;;;;;;;3.70;99.90;;;;;;5057940;28;19920;-77
2021/12/13 09:42:47;;;;;;;;;;;3.80;99.90;;;;;;5057439;28;19948;-77
2021/12/13 09:45:14;;;;;;;;;;;3.90;99.90;;;;;;5059490;28;19909;-78
2021/12/13 09:47:41;;;;;;;;;;;4.00;99.90;;;;;;5058884;28;19915;-77
2021/12/13 09:50:12;;;;;;;;;;;4.10;99.90;;;;;;5059176;28;20297;-77
2021/12/13 09:52:42;;;;;;;;;;;4.20;99.90;;;;;;5059230;28;20380;-78
2021/12/13 09:55:08;;;;;;;;;;;4.30;99.90;;;;;;5059112;28;19999;-78
2021/12/13 09:57:33;;;;;;;;;;;4.40;99.90;;;;;;5058760;28;19963;-77
2021/12/13 09:59:59;;;;;;;;;;;4.50;99.90;;;;;;5057474;28;19920;-77
2021/12/13 10:02:34;;;;;;;;;;;4.60;99.90;;;;;;5057725;28;20388;-77
2021/12/13 10:05:04;;;;;;;;;;;4.70;99.90;;;;;;5058825;28;20384;-77
2021/12/13 10:07:31;;;;;;;;;;;4.80;99.90;;;;;;5057848;28;19913;-77
2021/12/13 10:09:59;;;;;;;;;;;5.00;99.90;;;;;;5058636;28;19909;-78
2021/12/13 10:12:45;;;;;;;;;;;5.10;99.90;;;;;;5067401;28;19908;-77
2021/12/13 10:15:14;;;;;;;;;;;5.20;99.90;;;;;;5078045;28;19909;-78
2021/12/13 10:17:41;;;;;;;;;;;5.30;99.90;;;;;;5078744;28;19956;-78
2021/12/13 10:20:15;;;;;;;;;;;5.40;99.90;;;;;;5076031;28;19927;-77
2021/12/13 10:22:42;;;;;;;;;;;5.50;99.90;;;;;;5078523;28;20342;-77
2021/12/13 10:25:15;;;;;;;;;;;5.60;99.90;;;;;;5078606;28;20287;-78
2021/12/13 10:27:40;;;;;;;;;;;5.80;99.90;;;;;;5078329;28;19909;-78
2021/12/13 10:30:10;;;;;;;;;;;5.90;99.90;;;;;;5077105;28;20338;-77
2021/12/13 10:32:37;;;;;;;;;;;6.00;99.90;;;;;;5076834;28;20303;-77
2021/12/13 10:35:11;;;;;;;;;;;6.10;99.90;;;;;;5078206;28;19908;-78
2021/12/13 10:37:40;;;;;;;;;;;6.20;99.90;;;;;;5078431;28;19909;-77
2021/12/13 10:40:09;;;;;;;;;;;6.30;99.90;;;;;;5078219;28;19916;-77
2021/12/13 10:42:37;;;;;;;;;;;6.30;99.90;;;;;;5076388;28;19915;-77
2021/12/13 10:45:08;;;;;;;;;;;6.50;99.90;;;;;;5077692;28;19908;-77
2021/12/13 10:47:39;;;;;;;;;;;6.60;99.90;;;;;;5077853;28;20372;-78
2021/12/13 10:50:06;;;;;;;;;;;6.80;99.90;;;;;;5078027;28;19912;-78
2021/12/13 10:52:33;;;;;;;;;;;6.90;99.90;;;;;;5077958;28;20345;-78
2021/12/13 10:55:00;;;;;;;;;;;7.00;99.90;;;;;;5077988;28;19908;-77
2021/12/13 10:57:34;;;;;;;;;;;7.10;99.90;;;;;;5076173;28;19962;-77
2021/12/13 11:00:01;;;;;;;;;;;7.20;99.90;;;;;;5077744;28;19923;-78
2021/12/13 11:02:29;;;;;;;;;;;7.30;99.90;;;;;;5077844;28;19909;-78
2021/12/13 11:04:57;;;;;;;;;;;7.40;99.90;;;;;;5076438;28;19909;-77
2021/12/13 11:07:23;;;;;;;;;;;7.50;99.90;;;;;;5078020;28;20333;-77
2021/12/13 11:09:50;;;;;;;;;;;7.60;99.90;;;;;;5077708;28;19962;-78
2021/12/13 11:12:21;;;;;;;;;;;7.70;99.90;;;;;;5076112;28;19909;-77
2021/12/13 11:14:49;;;;;;;;;;;7.90;99.90;;;;;;5077820;28;20441;-77
2021/12/13 11:17:16;;;;;;;;;;;8.10;99.90;;;;;;5077856;28;19908;-78
2021/12/13 11:19:43;;;;;;;;;;;8.20;99.90;;;;;;5074353;28;20015;-78
2021/12/13 11:22:11;;;;;;;;;;;8.30;99.90;;;;;;5057581;28;20323;-77
2021/12/13 11:24:39;;;;;;;;;;;8.30;99.90;;;;;;5057601;28;20459;-77
2021/12/13 11:27:08;;;;;;;;;;;8.50;99.90;;;;;;5057247;28;19909;-78
2021/12/13 11:29:34;;;;;;;;;;;8.60;99.90;;;;;;5057435;28;19909;-78
2021/12/13 11:32:19;;;;;;;;;;;8.80;99.90;;;;;;5057413;28;20293;-77
2021/12/13 11:34:58;;;;;;;;;;;9.00;99.90;;;;;;5057542;28;20661;-77
2021/12/13 11:37:51;;;;;;;;;;;9.10;99.90;;;;;;5056062;28;19917;-77
2021/12/13 11:40:35;;;;;;;;;;;9.20;99.90;;;;;;5057305;28;19935;-77
2021/12/13 11:43:19;;;;;;;;;;;9.30;99.90;;;;;;5064303;28;19919;-77
2021/12/13 11:46:03;;;;;;;;;;;9.40;99.90;;;;;;5073561;28;19916;-77
2021/12/13 11:48:38;;;;;;;;;;;9.50;99.90;;;;;;5056121;28;19909;-77
2021/12/13 11:51:15;;;;;;;;;;;9.50;99.90;;;;;;5064941;28;19908;-77
2021/12/13 11:53:41;;;;;;;;;;;9.50;99.90;;;;;;5075815;28;20419;-77
2021/12/13 11:56:25;;;;;;;;;;;9.60;99.90;;;;;;5076239;28;19909;-77
2021/12/13 11:59:10;;;;;;;;;;;9.70;99.90;;;;;;5062900;28;19916;-77
2021/12/13 12:01:48;;;;;;;;;;;9.70;99.90;;;;;;5059800;28;19913;-76
2021/12/13 12:04:33;;;;;;;;;;;9.80;99.90;;;;;;5061577;28;20403;-76
2021/12/13 12:06:58;;;;;;;;;;;9.80;99.90;;;;;;5059874;28;19963;-77
2021/12/13 12:09:42;;;;;;;;;;;9.80;99.90;;;;;;5069633;28;19908;-77
2021/12/13 12:12:27;;;;;;;;;;;9.90;99.90;;;;;;5079964;28;19938;-77
2021/12/13 12:15:00;;;;;;;;;;;9.90;99.90;;;;;;5077313;28;19908;-77
2021/12/13 12:17:26;;;;;;;;;;;10.00;99.90;;;;;;5061720;28;19915;-77
2021/12/13 12:19:51;;;;;;;;;;;10.10;99.90;;;;;;5081288;28;19975;-77
2021/12/13 12:22:19;;;;;;;;;;;10.10;99.90;;;;;;5060862;28;19909;-76
2021/12/13 12:24:49;;;;;;;;;;;10.20;99.90;;;;;;5060610;28;19909;-77
2021/12/13 12:27:16;;;;;;;;;;;10.20;99.90;;;;;;5059202;28;19916;-77
2021/12/13 12:29:45;;;;;;;;;;;10.20;99.90;;;;;;5059272;28;19916;-77
2021/12/13 12:32:14;;;;;;;;;;;10.30;99.90;;;;;;5060600;28;19909;-77
2021/12/13 12:34:46;;;;;;;;;;;10.30;99.90;;;;;;5074023;28;19912;-77
2021/12/13 12:37:23;;;;;;;;;;;10.40;99.90;;;;;;5080631;28;19908;-77
2021/12/13 12:40:07;;;;;;;;;;;10.40;99.90;;;;;;5080544;28;19913;-77
2021/12/13 12:42:43;;;;;;;;;;;10.40;99.90;;;;;;5080020;28;19948;-77
2021/12/13 12:45:20;;;;;;;;;;;10.40;99.90;;;;;;5080468;28;20022;-77
2021/12/13 12:47:46;;;;;;;;;;;10.50;99.90;;;;;;5080352;28;20380;-77
2021/12/13 12:50:14;;;;;;;;;;;10.50;99.90;;;;;;5080047;28;19917;-77
2021/12/13 12:53:09;;;;;;;;;;;10.50;99.90;;;;;;5073374;28;19927;-77
2021/12/13 12:55:41;;;;;;;;;;;10.60;99.90;;;;;;5066137;28;19915;-77
2021/12/13 12:58:12;;;;;;;;;;;10.60;99.90;;;;;;5079629;28;19909;-77
2021/12/13 13:00:39;;;;;;;;;;;10.60;99.90;;;;;;5079040;28;19912;-77
2021/12/13 13:03:05;;;;;;;;;;;10.60;99.90;;;;;;5078867;28;19940;-77
2021/12/13 13:05:31;;;;;;;;;;;10.60;99.90;;;;;;5080088;28;19908;-78
2021/12/13 13:07:56;;;;;;;;;;;10.70;99.90;;;;;;5078032;28;20460;-77
2021/12/13 13:12:58;;;;;;;;;;;10.70;99.90;;;;;;5079896;28;19962;-77
2021/12/13 13:15:25;;;;;;;;;;;10.80;99.90;;;;;;5078573;28;19962;-77
2021/12/13 13:17:58;;;;;;;;;;;10.70;99.90;;;;;;5078377;28;19995;-77
2021/12/13 13:20:27;;;;;;;;;;;10.80;99.90;;;;;;5070257;28;19924;-77
2021/12/13 13:22:54;;;;;;;;;;;10.80;99.90;;;;;;5059500;28;20434;-77
2021/12/13 13:25:23;;;;;;;;;;;10.80;99.90;;;;;;5058527;28;19913;-77
2021/12/13 13:27:49;;;;;;;;;;;10.90;99.90;;;;;;5057934;28;19916;-77
2021/12/13 13:30:23;;;;;;;;;;;10.90;99.90;;;;;;5059652;28;19909;-78
2021/12/13 13:32:50;;;;;;;;;;;10.90;99.90;;;;;;5059209;28;19909;-77
2021/12/13 13:35:16;;;;;;;;;;;10.90;99.90;;;;;;5069344;28;19908;-77
2021/12/13 13:37:42;;;;;;;;;;;10.90;99.90;;;;;;5084424;28;19913;-77
2021/12/13 13:40:13;;;;;;;;;;;10.90;99.90;;;;;;5081093;28;20003;-77
2021/12/13 13:42:59;;;;;;;;;;;10.80;99.90;;;;;;5089128;28;19908;-78
2021/12/13 13:45:35;;;;;;;;;;;10.90;99.90;;;;;;5066006;28;19940;-77
2021/12/13 13:48:08;;;;;;;;;;;10.90;99.90;;;;;;5067110;28;19909;-77
2021/12/13 13:50:36;;;;;;;;;;;10.90;99.90;;;;;;5079102;28;19916;-77
2021/12/13 13:53:04;;;;;;;;;;;10.90;99.90;;;;;;5077866;28;19961;-78
2021/12/13 13:55:35;;;;;;;;;;;10.80;99.90;;;;;;5078892;28;20007;-77
2021/12/13 13:58:03;;;;;;;;;;;10.80;99.90;;;;;;5078699;28;19908;-77
2021/12/13 14:00:32;;;;;;;;;;;10.80;99.90;;;;;;5078902;28;19975;-77
2021/12/13 14:02:57;;;;;;;;;;;10.70;99.90;;;;;;5077608;28;19909;-77
2021/12/13 14:05:23;;;;;;;;;;;10.80;99.90;;;;;;5078418;28;20420;-78
2021/12/13 14:07:49;;;;;;;;;;;10.80;99.90;;;;;;5083596;28;19939;-77
2021/12/13 14:10:17;;;;;;;;;;;10.70;99.90;;;;;;5083758;28;19908;-77
2021/12/13 14:12:45;;;;;;;;;;;10.70;99.90;;;;;;5096971;28;19915;-78
2021/12/13 14:15:13;;;;;;;;;;;10.60;99.90;;;;;;5078876;28;19999;-77
2021/12/13 14:17:39;;;;;;;;;;;10.50;99.90;;;;;;5078603;28;19909;-78
2021/12/13 14:20:14;;;;;;;;;;;10.50;99.90;;;;;;5071583;28;19932;-78
2021/12/13 14:22:40;;;;;;;;;;;10.50;99.90;;;;;;5057753;28;19959;-77
2021/12/13 14:25:06;;;;;;;;;;;10.50;99.90;;;;;;5063354;28;19917;-77
2021/12/13 14:27:32;;;;;;;;;;;10.50;99.90;;;;;;5058046;28;19915;-77
2021/12/13 14:30:09;;;;;;;;;;;10.50;99.90;;;;;;5058480;28;19909;-77
2021/12/13 14:32:35;;;;;;;;;;;10.40;99.90;;;;;;5058266;28;19931;-77
2021/12/13 14:35:18;;;;;;;;;;;10.30;99.90;;;;;;5058322;28;19908;-77
2021/12/13 14:37:44;;;;;;;;;;;10.30;99.90;;;;;;5058149;28;19909;-77
2021/12/13 14:40:10;;;;;;;;;;;10.20;99.90;;;;;;5058362;28;20015;-77
2021/12/13 14:42:36;;;;;;;;;;;10.20;99.90;;;;;;5057830;28;19940;-77
2021/12/13 14:45:06;;;;;;;;;;;10.20;99.90;;;;;;5086195;28;20013;-77
2021/12/13 14:47:36;;;;;;;;;;;10.20;99.90;;;;;;5079677;28;19919;-78
2021/12/13 14:50:08;;;;;;;;;;;10.20;99.90;;;;;;5086058;28;19947;-77
2021/12/13 14:52:41;;;;;;;;;;;10.20;99.90;;;;;;5063254;28;19912;-77
2021/12/13 14:55:09;;;;;;;;;;;10.10;99.90;;;;;;5076966;28;19909;-77